createdAt,value
2019-03-23T00:00:24.858Z,36.80
2019-03-23T00:03:26.418Z,36.70
2019-03-23T00:06:30.187Z,36.60
2019-03-23T00:09:35.071Z,36.60
2019-03-23T00:12:21.041Z,36.80
2019-03-23T00:15:22.312Z,36.80
2019-03-23T00:18:21.304Z,36.90
2019-03-23T00:21:11.750Z,36.80
2019-03-23T00:23:56.297Z,36.80
2019-03-23T00:26:41.336Z,37.50
2019-03-23T00:29:32.756Z,36.80
2019-03-23T00:32:42.751Z,36.80
2019-03-23T00:35:23.686Z,36.80
2019-03-23T00:38:11.974Z,36.70
2019-03-23T00:41:10.110Z,36.90
2019-03-23T00:43:59.735Z,36.90
2019-03-23T00:46:52.540Z,36.80
2019-03-23T00:49:43.962Z,36.80
2019-03-23T00:52:42.532Z,36.80
2019-03-23T00:55:27.170Z,36.80
2019-03-23T00:58:14.944Z,36.90
2019-03-23T01:01:18.509Z,37.00
2019-03-23T01:04:20.379Z,37.00
2019-03-23T01:07:03.300Z,37.00
2019-03-23T01:09:48.270Z,37.20
2019-03-23T01:12:30.885Z,37.30
2019-03-23T01:15:20.189Z,37.30
2019-03-23T01:18:17.586Z,37.20
2019-03-23T01:21:07.944Z,37.20
2019-03-23T01:23:51.864Z,37.20
2019-03-23T01:26:48.591Z,37.20
2019-03-23T01:29:32.558Z,37.20
2019-03-23T01:32:28.979Z,37.30
2019-03-23T01:35:19.499Z,37.30
2019-03-23T01:38:10.615Z,37.30
2019-03-23T01:41:09.799Z,37.30
2019-03-23T01:44:02.684Z,37.30
2019-03-23T01:46:47.339Z,37.20
2019-03-23T01:49:31.271Z,37.20
2019-03-23T01:52:18.099Z,37.30
2019-03-23T01:55:10.631Z,37.20
2019-03-23T01:58:00.227Z,37.20
2019-03-23T02:00:47.026Z,37.20
2019-03-23T02:03:42.227Z,37.50
2019-03-23T02:06:39.336Z,37.40
2019-03-23T02:09:27.709Z,37.50
2019-03-23T02:12:30.004Z,37.50
2019-03-23T02:15:24.190Z,37.50
2019-03-23T02:18:15.917Z,37.50
2019-03-23T02:21:04.887Z,37.60
2019-03-23T02:24:09.736Z,37.60
2019-03-23T02:27:02.795Z,37.60
2019-03-23T02:29:49.606Z,37.60
2019-03-23T02:32:43.791Z,37.70
2019-03-23T02:38:48.649Z,37.60
2019-03-23T02:41:39.303Z,37.40
2019-03-23T02:44:26.777Z,37.50
2019-03-23T02:47:12.194Z,37.50
2019-03-23T02:50:00.544Z,37.50
2019-03-23T02:52:43.471Z,37.70
2019-03-23T02:55:35.458Z,37.60
2019-03-23T02:58:18.632Z,37.60
2019-03-23T03:01:05.608Z,37.50
2019-03-23T03:04:09.414Z,37.50
2019-03-23T03:07:04.370Z,37.50
2019-03-23T03:09:51.536Z,37.50
2019-03-23T03:12:41.935Z,37.60
2019-03-23T03:15:31.061Z,37.50
2019-03-23T03:18:26.107Z,37.50
2019-03-23T03:21:12.162Z,37.60
2019-03-23T03:23:55.837Z,37.60
2019-03-23T03:26:43.235Z,37.70
2019-03-23T03:29:32.808Z,37.70
2019-03-23T03:32:33.110Z,37.80
2019-03-23T03:35:18.839Z,37.90
2019-03-23T03:38:05.563Z,37.80
2019-03-23T03:40:46.518Z,38.00
2019-03-23T03:43:39.353Z,38.00
2019-03-23T03:46:28.030Z,38.10
2019-03-23T03:49:12.571Z,37.80
2019-03-23T03:51:50.695Z,37.80
2019-03-23T03:54:45.301Z,37.80
2019-03-23T03:57:28.322Z,37.80
2019-03-23T04:00:13.807Z,38.40
2019-03-23T04:03:09.229Z,37.80
2019-03-23T04:05:50.598Z,37.80
2019-03-23T04:08:43.443Z,37.80
2019-03-23T04:11:41.034Z,37.80
2019-03-23T04:14:29.464Z,37.90
2019-03-23T04:17:16.512Z,37.90
2019-03-23T04:20:17.831Z,37.80
2019-03-23T04:23:06.908Z,37.80
2019-03-23T04:26:04.075Z,37.80
2019-03-23T04:28:49.139Z,37.80
2019-03-23T04:31:35.131Z,38.10
2019-03-23T04:34:24.710Z,38.20
2019-03-23T04:37:23.586Z,38.30
2019-03-23T04:40:27.133Z,38.30
2019-03-23T04:43:11.977Z,38.40
2019-03-23T04:45:58.584Z,38.30
2019-03-23T04:48:47.472Z,38.30
2019-03-23T04:51:32.516Z,38.30
2019-03-23T04:54:19.019Z,38.10
2019-03-23T04:57:05.934Z,38.00
2019-03-23T04:59:52.132Z,38.00
2019-03-23T05:02:40.685Z,38.00
2019-03-23T05:05:29.690Z,38.10
2019-03-23T05:08:17.937Z,38.00
2019-03-23T05:11:01.327Z,38.00
2019-03-23T05:14:01.554Z,37.90
2019-03-23T05:16:38.228Z,37.90
2019-03-23T05:19:29.806Z,37.90
2019-03-23T05:22:26.391Z,38.00
2019-03-23T05:25:25.862Z,38.20
2019-03-23T05:28:15.025Z,38.30
2019-03-23T05:31:11.364Z,38.30
2019-03-23T05:34:04.155Z,38.40
2019-03-23T05:36:54.591Z,38.50
2019-03-23T05:39:51.774Z,38.60
2019-03-23T05:42:42.481Z,38.70
2019-03-23T05:45:41.787Z,38.60
2019-03-23T05:48:27.093Z,38.60
2019-03-23T05:51:17.464Z,38.50
2019-03-23T05:53:59.651Z,38.50
2019-03-23T05:56:58.772Z,38.50
2019-03-23T05:59:43.029Z,38.40
2019-03-23T06:02:33.547Z,38.40
2019-03-23T06:05:28.732Z,38.40
2019-03-23T06:08:15.443Z,38.40
2019-03-23T06:11:12.597Z,38.40
2019-03-23T06:14:05.467Z,38.40
2019-03-23T06:16:52.790Z,38.50
2019-03-23T06:19:39.814Z,38.50
2019-03-23T06:22:32.133Z,38.70
2019-03-23T06:25:34.094Z,38.80
2019-03-23T06:28:40.372Z,38.80
2019-03-23T06:31:24.117Z,39.00
2019-03-23T06:34:06.829Z,38.90
2019-03-23T06:36:55.811Z,39.20
2019-03-23T06:39:45.488Z,39.20
2019-03-23T06:42:40.985Z,39.10
2019-03-23T06:45:23.598Z,39.10
2019-03-23T06:48:16.043Z,39.10
2019-03-23T06:50:54.682Z,39.10
2019-03-23T06:53:42.497Z,39.00
2019-03-23T06:56:52.474Z,39.20
2019-03-23T06:59:45.249Z,39.30
2019-03-23T07:02:32.372Z,39.40
2019-03-23T07:05:17.854Z,39.50
2019-03-23T07:08:08.323Z,39.60
2019-03-23T07:10:59.753Z,39.70
2019-03-23T07:13:49.663Z,39.70
2019-03-23T07:16:29.519Z,39.90
2019-03-23T07:19:19.565Z,40.00
2019-03-23T07:22:10.413Z,40.00
2019-03-23T07:25:04.811Z,40.30
2019-03-23T07:27:49.728Z,40.30
2019-03-23T07:30:37.563Z,40.50
2019-03-23T07:33:24.428Z,40.80
2019-03-23T07:36:14.360Z,40.90
2019-03-23T07:38:56.465Z,41.30
2019-03-23T07:41:44.301Z,41.30
2019-03-23T07:44:31.321Z,41.80
2019-03-23T07:47:18.909Z,41.90
2019-03-23T07:50:10.542Z,42.10
2019-03-23T07:53:00.560Z,42.10
2019-03-23T07:55:42.414Z,42.00
2019-03-23T07:58:34.419Z,42.00
2019-03-23T08:01:32.436Z,42.00
2019-03-23T08:04:18.929Z,42.20
2019-03-23T08:07:09.546Z,42.10
2019-03-23T08:10:07.623Z,42.40
2019-03-23T08:12:55.238Z,42.50
2019-03-23T08:15:44.119Z,42.50
2019-03-23T08:18:33.798Z,42.70
2019-03-23T08:21:33.390Z,42.90
2019-03-23T08:24:50.062Z,42.80
2019-03-23T08:27:41.635Z,42.70
2019-03-23T08:30:33.235Z,42.90
2019-03-23T08:33:14.759Z,42.60
2019-03-23T08:36:08.553Z,42.60
2019-03-23T08:39:01.360Z,42.10
2019-03-23T08:42:05.712Z,42.00
2019-03-23T08:45:03.179Z,42.00
2019-03-23T08:47:47.248Z,42.00
2019-03-23T08:50:36.080Z,41.80
2019-03-23T08:56:40.047Z,41.70
2019-03-23T08:59:26.329Z,40.60
2019-03-23T09:02:15.929Z,40.80
2019-03-23T09:05:06.024Z,40.50
2019-03-23T09:07:52.632Z,40.20
2019-03-23T09:10:41.574Z,40.20
2019-03-23T09:13:49.505Z,39.90
2019-03-23T09:16:26.179Z,40.00
2019-03-23T09:19:22.210Z,40.00
2019-03-23T09:22:14.971Z,39.40
2019-03-23T09:25:00.287Z,39.40
2019-03-23T09:27:47.123Z,39.30
2019-03-23T09:30:40.488Z,38.80
2019-03-23T09:33:29.594Z,38.80
2019-03-23T09:36:23.372Z,38.70
2019-03-23T09:39:11.983Z,38.30
2019-03-23T09:42:02.324Z,38.40
2019-03-23T09:44:51.800Z,38.50
2019-03-23T09:47:36.362Z,38.60
2019-03-23T09:50:17.648Z,38.00
2019-03-23T09:53:03.482Z,38.30
2019-03-23T09:56:00.682Z,37.90
2019-03-23T09:59:08.647Z,37.80
2019-03-23T10:01:48.194Z,37.40
2019-03-23T10:04:37.351Z,37.30
2019-03-23T10:07:29.700Z,37.10
2019-03-23T10:10:23.893Z,36.70
2019-03-23T10:13:07.622Z,36.50
2019-03-23T10:15:58.838Z,36.00
2019-03-23T10:19:07.164Z,36.00
2019-03-23T10:21:55.784Z,34.80
2019-03-23T10:24:39.937Z,34.90
2019-03-23T10:27:37.617Z,34.60
2019-03-23T10:30:39.659Z,34.20
2019-03-23T10:33:25.977Z,33.90
2019-03-23T10:36:15.758Z,33.50
2019-03-23T10:39:02.989Z,33.20
2019-03-23T10:41:49.689Z,32.90
2019-03-23T10:44:43.773Z,32.70
2019-03-23T10:47:34.826Z,32.60
2019-03-23T10:50:22.124Z,32.00
2019-03-23T10:53:22.808Z,31.50
2019-03-23T10:56:04.764Z,31.60
2019-03-23T10:58:52.196Z,31.60
2019-03-23T11:02:07.578Z,31.40
2019-03-23T11:05:11.873Z,31.60
2019-03-23T11:08:16.307Z,31.60
2019-03-23T11:11:09.581Z,31.10
2019-03-23T11:13:56.599Z,31.30
2019-03-23T11:16:44.759Z,31.50
2019-03-23T11:20:00.962Z,31.60
2019-03-23T11:22:50.521Z,31.80
2019-03-23T11:25:43.988Z,32.10
2019-03-23T11:28:32.952Z,32.00
2019-03-23T11:31:17.819Z,32.00
2019-03-23T11:34:18.299Z,31.90
2019-03-23T11:37:15.058Z,32.00
2019-03-23T11:39:53.852Z,31.80
2019-03-23T11:43:00.086Z,32.20
2019-03-23T11:45:46.079Z,31.80
2019-03-23T11:48:37.090Z,32.50
2019-03-23T11:51:24.866Z,32.10
2019-03-23T11:54:15.220Z,32.10
2019-03-23T11:57:09.712Z,31.70
2019-03-23T11:59:59.425Z,31.80
2019-03-23T12:02:52.143Z,31.90
2019-03-23T12:05:35.630Z,31.80
2019-03-23T12:08:30.068Z,31.70
2019-03-23T12:11:16.222Z,31.40
2019-03-23T12:14:08.359Z,32.10
2019-03-23T12:16:53.842Z,32.00
2019-03-23T12:19:50.794Z,31.80
2019-03-23T12:22:41.947Z,32.20
2019-03-23T12:25:31.525Z,32.10
2019-03-23T12:28:18.609Z,32.80
2019-03-23T12:31:10.751Z,32.10
2019-03-23T12:34:04.673Z,32.30
2019-03-23T12:36:56.487Z,32.50
2019-03-23T12:39:52.496Z,32.70
2019-03-23T12:42:38.443Z,33.00
2019-03-23T12:45:43.548Z,33.20
2019-03-23T12:48:27.679Z,33.40
2019-03-23T12:51:19.219Z,33.90
2019-03-23T12:53:58.651Z,33.80
2019-03-23T12:56:48.942Z,33.80
2019-03-23T12:59:47.249Z,34.30
2019-03-23T13:02:35.922Z,34.40
2019-03-23T13:05:31.727Z,34.30
2019-03-23T13:08:28.969Z,34.20
2019-03-23T13:11:35.570Z,34.50
2019-03-23T13:15:02.369Z,34.50
2019-03-23T13:17:16.439Z,34.20
2019-03-23T13:20:03.615Z,34.70
2019-03-23T13:22:48.208Z,35.00
2019-03-23T13:25:36.969Z,34.70
2019-03-23T13:28:18.587Z,34.70
2019-03-23T13:31:07.531Z,34.40
2019-03-23T13:34:00.081Z,34.50
2019-03-23T13:36:51.579Z,34.60
2019-03-23T13:39:38.922Z,34.60
2019-03-23T13:42:29.217Z,35.90
2019-03-23T13:45:21.148Z,35.40
2019-03-23T13:48:09.600Z,35.20
2019-03-23T13:50:56.208Z,35.40
2019-03-23T13:53:44.862Z,34.50
2019-03-23T13:56:30.172Z,34.20
2019-03-23T13:59:14.287Z,34.30
2019-03-23T14:02:00.690Z,34.30
2019-03-23T14:04:42.792Z,34.90
2019-03-23T14:07:24.938Z,35.40
2019-03-23T14:10:03.103Z,35.10
2019-03-23T14:12:47.404Z,34.90
2019-03-23T14:15:27.766Z,35.00
2019-03-23T14:18:03.655Z,35.40
2019-03-23T14:20:42.231Z,35.40
2019-03-23T14:23:26.702Z,35.30
2019-03-23T14:26:18.333Z,34.90
2019-03-23T14:28:54.410Z,35.00
2019-03-23T14:31:37.211Z,35.00
2019-03-23T14:34:21.095Z,34.90
2019-03-23T14:37:05.105Z,34.80
2019-03-23T14:39:47.449Z,35.20
2019-03-23T14:42:32.418Z,35.00
2019-03-23T14:45:14.593Z,34.90
2019-03-23T14:47:59.797Z,34.90
2019-03-23T14:50:48.668Z,35.20
2019-03-23T14:53:27.865Z,35.10
2019-03-23T14:56:13.022Z,35.20
2019-03-23T14:58:59.650Z,34.90
2019-03-23T15:01:48.515Z,35.10
2019-03-23T15:04:41.801Z,35.00
2019-03-23T15:07:20.351Z,35.20
2019-03-23T15:10:16.729Z,35.20
2019-03-23T15:13:04.825Z,35.00
2019-03-23T15:15:58.029Z,35.00
2019-03-23T15:18:50.186Z,35.20
2019-03-23T15:21:51.233Z,35.20
2019-03-23T15:24:38.152Z,35.40
2019-03-23T15:27:33.568Z,35.40
2019-03-23T15:30:10.035Z,35.30
2019-03-23T15:33:01.770Z,35.40
2019-03-23T15:35:51.339Z,35.60
2019-03-23T15:38:37.663Z,36.10
2019-03-23T15:41:22.097Z,35.80
2019-03-23T15:43:59.694Z,35.70
2019-03-23T15:46:49.581Z,35.70
2019-03-23T15:49:28.484Z,35.70
2019-03-23T15:52:17.387Z,35.80
2019-03-23T15:55:11.754Z,35.60
2019-03-23T15:57:58.258Z,35.70
2019-03-23T16:00:40.147Z,35.80
2019-03-23T16:03:20.723Z,36.00
2019-03-23T16:06:27.902Z,36.50
2019-03-23T16:08:58.064Z,36.00
2019-03-23T16:11:35.525Z,35.70
2019-03-23T16:14:14.048Z,36.70
2019-03-23T16:16:55.610Z,36.00
2019-03-23T16:19:35.174Z,36.00
2019-03-23T16:22:23.174Z,36.30
2019-03-23T16:25:15.252Z,36.30
2019-03-23T16:27:53.562Z,36.20
2019-03-23T16:30:36.428Z,36.20
2019-03-23T16:33:18.903Z,36.30
2019-03-23T16:36:00.146Z,36.40
2019-03-23T16:38:40.945Z,36.50
2019-03-23T16:41:37.031Z,36.60
2019-03-23T16:44:23.024Z,36.70
2019-03-23T16:47:12.237Z,36.70
2019-03-23T16:49:58.126Z,36.80
2019-03-23T16:52:41.522Z,36.60
2019-03-23T16:55:33.969Z,36.60
2019-03-23T16:58:16.314Z,36.60
2019-03-23T17:01:00.427Z,36.60
2019-03-23T17:03:58.198Z,36.60
2019-03-23T17:06:46.095Z,36.80
2019-03-23T17:09:13.585Z,36.90
2019-03-23T17:11:46.545Z,37.00
2019-03-23T17:14:19.524Z,37.00
2019-03-23T17:16:52.556Z,37.60
2019-03-23T17:19:25.602Z,37.10
2019-03-23T17:21:58.640Z,37.00
2019-03-23T17:24:31.623Z,36.90
2019-03-23T17:27:04.642Z,36.90
2019-03-23T17:29:37.638Z,36.70
2019-03-23T17:32:10.701Z,36.40
2019-03-23T17:34:43.681Z,36.30
2019-03-23T17:37:16.634Z,36.50
2019-03-23T17:39:49.613Z,36.60
2019-03-23T17:42:22.560Z,36.40
2019-03-23T17:44:55.541Z,36.40
2019-03-23T17:47:28.527Z,36.30
2019-03-23T17:50:01.610Z,36.30
2019-03-23T17:52:34.609Z,36.20
2019-03-23T17:55:07.817Z,36.20
2019-03-23T17:57:40.777Z,36.30
2019-03-23T18:00:14.052Z,36.40
2019-03-23T18:02:47.092Z,36.30
2019-03-23T18:05:20.066Z,36.40
2019-03-23T18:07:53.141Z,36.30
2019-03-23T18:10:28.195Z,36.40
2019-03-23T18:13:00.899Z,36.60
2019-03-23T18:15:33.965Z,36.60
2019-03-23T18:18:06.950Z,36.60
2019-03-23T18:20:39.923Z,36.60
2019-03-23T18:23:12.877Z,36.70
2019-03-23T18:25:45.874Z,36.80
2019-03-23T18:28:19.006Z,36.90
2019-03-23T18:30:51.991Z,36.90
2019-03-23T18:33:24.954Z,37.00
2019-03-23T18:35:57.937Z,37.00
2019-03-23T18:38:30.966Z,36.50
2019-03-23T18:41:03.953Z,37.20
2019-03-23T18:43:40.369Z,37.90
2019-03-23T18:46:13.417Z,36.70
2019-03-23T18:48:46.578Z,37.30
2019-03-23T18:51:19.679Z,37.30
2019-03-23T18:53:52.646Z,37.40
2019-03-23T18:56:25.893Z,37.50
2019-03-23T18:58:59.153Z,37.50
2019-03-23T19:01:32.132Z,37.60
2019-03-23T19:04:05.210Z,37.70
2019-03-23T19:06:38.335Z,37.90
2019-03-23T19:09:12.794Z,38.00
2019-03-23T19:11:46.034Z,38.10
2019-03-23T19:14:19.111Z,38.10
2019-03-23T19:16:52.225Z,38.30
2019-03-23T19:19:25.348Z,38.40
2019-03-23T19:21:58.571Z,38.40
2019-03-23T19:24:31.643Z,38.50
2019-03-23T19:27:04.871Z,38.60
2019-03-23T19:29:38.013Z,38.60
2019-03-23T19:32:11.179Z,38.80
2019-03-23T19:34:44.187Z,38.70
2019-03-23T19:37:17.198Z,38.70
2019-03-23T19:39:50.218Z,38.60
2019-03-23T19:42:23.207Z,38.60
2019-03-23T19:44:56.409Z,38.60
2019-03-23T19:47:29.379Z,38.70
2019-03-23T19:50:02.614Z,38.70
2019-03-23T19:52:36.820Z,38.60
2019-03-23T19:55:10.212Z,38.60
2019-03-23T19:57:43.379Z,38.60
2019-03-23T20:00:16.529Z,38.60
2019-03-23T20:02:49.675Z,38.70
2019-03-23T20:05:22.791Z,38.60
2019-03-23T20:07:55.820Z,38.60
2019-03-23T20:10:28.789Z,38.60
2019-03-23T20:13:01.936Z,38.50
2019-03-23T20:15:35.012Z,38.50
2019-03-23T20:18:08.190Z,38.50
2019-03-23T20:20:41.187Z,38.50
2019-03-23T20:23:14.378Z,38.60
2019-03-23T20:25:47.704Z,38.60
2019-03-23T20:28:20.752Z,38.60
2019-03-23T20:30:54.968Z,38.60
2019-03-23T20:33:28.024Z,38.60
2019-03-23T20:36:01.005Z,38.70
2019-03-23T20:38:34.215Z,38.70
2019-03-23T20:41:07.448Z,38.70
2019-03-23T20:43:40.495Z,38.80
2019-03-23T20:46:13.677Z,38.90
2019-03-23T20:48:47.118Z,38.80
2019-03-23T20:51:21.608Z,38.90
2019-03-23T20:53:54.660Z,38.80
2019-03-23T20:56:27.794Z,38.90
2019-03-23T20:59:00.775Z,38.90
2019-03-23T21:01:33.880Z,38.90
2019-03-23T21:04:06.879Z,38.90
2019-03-23T21:06:39.846Z,38.90
2019-03-23T21:09:12.824Z,39.60
2019-03-23T21:11:45.854Z,39.00
2019-03-23T21:14:20.438Z,39.00
2019-03-23T21:16:53.702Z,39.20
2019-03-23T21:19:26.813Z,39.10
2019-03-23T21:21:59.820Z,39.20
2019-03-23T21:24:32.842Z,39.30
2019-03-23T21:27:05.831Z,39.30
2019-03-23T21:29:41.158Z,39.30
2019-03-23T21:32:13.600Z,39.40
2019-03-23T21:34:46.570Z,39.50
2019-03-23T21:37:19.548Z,39.40
2019-03-23T21:39:52.659Z,39.50
2019-03-23T21:42:25.624Z,39.60
2019-03-23T21:44:58.608Z,39.60
2019-03-23T21:47:31.574Z,39.70
2019-03-23T21:50:04.832Z,39.70
2019-03-23T21:52:37.787Z,39.80
2019-03-23T21:55:10.850Z,39.80
2019-03-23T21:57:43.922Z,39.80
2019-03-23T22:00:45.764Z,39.90
2019-03-23T22:03:18.897Z,39.90
2019-03-23T22:05:51.970Z,39.90
2019-03-23T22:08:24.951Z,40.00
2019-03-23T22:10:57.907Z,40.10
2019-03-23T22:13:30.887Z,39.50
2019-03-23T22:16:05.278Z,40.10
2019-03-23T22:18:38.604Z,40.10
2019-03-23T22:21:11.553Z,40.20
2019-03-23T22:23:44.522Z,40.30
2019-03-23T22:26:17.481Z,40.40
2019-03-23T22:28:50.736Z,40.40
2019-03-23T22:31:23.789Z,40.40
2019-03-23T22:33:56.778Z,40.40
2019-03-23T22:36:29.749Z,40.50
2019-03-23T22:39:02.820Z,40.60
2019-03-23T22:41:36.047Z,40.50
2019-03-23T22:44:09.028Z,40.50
2019-03-23T22:46:42.008Z,40.60
2019-03-23T22:49:15.277Z,40.50
2019-03-23T22:51:49.256Z,40.40
2019-03-23T22:54:22.303Z,40.40
2019-03-23T22:56:55.250Z,40.40
2019-03-23T22:59:28.233Z,40.40
2019-03-23T23:02:01.208Z,40.30
2019-03-23T23:04:34.209Z,40.40
2019-03-23T23:07:07.159Z,40.30
2019-03-23T23:09:40.151Z,40.30
2019-03-23T23:12:13.116Z,40.40
2019-03-23T23:14:47.974Z,40.30
2019-03-23T23:17:20.948Z,40.20
2019-03-23T23:19:53.982Z,40.30
2019-03-23T23:22:26.985Z,40.40
2019-03-23T23:24:59.960Z,40.20
2019-03-23T23:27:32.999Z,40.20
2019-03-23T23:30:07.692Z,40.30
2019-03-23T23:32:40.797Z,40.30
2019-03-23T23:35:13.863Z,40.50
2019-03-23T23:37:46.837Z,40.50
2019-03-23T23:40:19.803Z,40.30
2019-03-23T23:42:52.796Z,40.30
2019-03-23T23:45:25.870Z,40.40
2019-03-23T23:47:59.931Z,40.40
2019-03-23T23:50:34.045Z,40.40
2019-03-23T23:53:07.047Z,40.60
2019-03-23T23:55:40.064Z,40.60
2019-03-23T23:58:13.050Z,40.70
